Francis Benedict — WDC2633 — position and weather

sailwx.info

Track history (hours):
 
Tides and Currents Weather Stations Pressure Air Temp Water Temp Dewpoint Dewpoint Depression Visibility Wind Speed Wind Dir Waves Ship Positions

Francis Benedict

Owner: Kirby Inland Marine LP, Houston, TX. More information available from US FCC via Universal Licensing System and Coast Guard Vessel Documentation Center.

Last reported at 2018-Jan-08 23:35 UTC. Time now 2018-Feb-24 04:18 UTC.
Position N 32°35' W 091°07'.
Warning: this ship's position is 46 days out of date.

Length 126 m; draft 2.7 m.

Type: Towing. MMSI: 366995820.

Date/timePositionNaut miles runAvg speedWind from/ knotsBaromVisibWave heightAir tempDewpointWater temp
2018-Jan-08 23:35N 32°35' W 091°07'1 6.3
2018-Jan-08 23:29N 32°35' W 091°07'4 5.8
2018-Jan-08 22:43N 32°30' W 091°07'2 6.8
2018-Jan-08 22:29N 32°29' W 091°07'3 6.4
2018-Jan-08 22:00N 32°27' W 091°04'3 6.4
2018-Jan-08 21:31N 32°25' W 091°00'3 5.3
2018-Jan-08 21:00N 32°23' W 090°60'2 5.0
2018-Jan-08 20:31N 32°21' W 090°58'3 6.4
2018-Jan-08 20:00N 32°20' W 090°54'2 4.5
2018-Jan-08 19:30N 32°18' W 090°55'3 6.8
2018-Jan-08 19:00N 32°16' W 090°58'3 6.0
2018-Jan-08 18:30N 32°13' W 090°59'3 6.4
2018-Jan-08 18:00N 32°10' W 091°00'3 5.9
2018-Jan-08 17:30N 32°07' W 091°02'3 6.2
2018-Jan-08 17:00N 32°08' W 091°05'  
2018-Jan-06 03:35N 32°03' W 091°03'4 8.2
2018-Jan-06 03:05N 32°06' W 091°06'1 9.2
2018-Jan-06 03:01N 32°07' W 091°06'3 5.6
2018-Jan-06 02:30N 32°07' W 091°03'3 5.7
2018-Jan-06 02:00N 32°09' W 091°00'4 8.6
2018-Jan-06 01:31N 32°13' W 090°59'5 9.2
2018-Jan-06 01:01N 32°17' W 090°56'4 7.7
2018-Jan-06 00:30N 32°21' W 090°55'5 9.2
2018-Jan-06 00:01N 32°21' W 090°60'4 8.2
2018-Jan-05 23:30N 32°25' W 091°01'5 9.3
2018-Jan-05 23:00N 32°27' W 091°06'  
Track history (hours):
 
Tides and Currents Weather Stations Pressure Air Temp Water Temp Dewpoint Dewpoint Depression Visibility Wind Speed Wind Dir Waves Ship Positions

Francis Benedict

Owner: Kirby Inland Marine LP, Houston, TX. More information available from US FCC via Universal Licensing System and Coast Guard Vessel Documentation Center.

Last reported at 2018-Jan-08 23:35 UTC. Time now 2018-Feb-24 04:18 UTC.
Position N 32°35' W 091°07'.
Warning: this ship's position is 46 days out of date.

Length 126 m; draft 2.7 m.

Type: Towing. MMSI: 366995820.

Date/timePositionNaut miles runAvg speedWind from/ knotsBaromVisibWave heightAir tempDewpointWater temp
2018-Jan-08 23:35N 32°35' W 091°07'1 6.3
2018-Jan-08 23:29N 32°35' W 091°07'4 5.8
2018-Jan-08 22:43N 32°30' W 091°07'2 6.8
2018-Jan-08 22:29N 32°29' W 091°07'3 6.4
2018-Jan-08 22:00N 32°27' W 091°04'3 6.4
2018-Jan-08 21:31N 32°25' W 091°00'3 5.3
2018-Jan-08 21:00N 32°23' W 090°60'2 5.0
2018-Jan-08 20:31N 32°21' W 090°58'3 6.4
2018-Jan-08 20:00N 32°20' W 090°54'2 4.5
2018-Jan-08 19:30N 32°18' W 090°55'3 6.8
2018-Jan-08 19:00N 32°16' W 090°58'3 6.0
2018-Jan-08 18:30N 32°13' W 090°59'3 6.4
2018-Jan-08 18:00N 32°10' W 091°00'3 5.9
2018-Jan-08 17:30N 32°07' W 091°02'3 6.2
2018-Jan-08 17:00N 32°08' W 091°05'  
2018-Jan-06 03:35N 32°03' W 091°03'4 8.2
2018-Jan-06 03:05N 32°06' W 091°06'1 9.2
2018-Jan-06 03:01N 32°07' W 091°06'3 5.6
2018-Jan-06 02:30N 32°07' W 091°03'3 5.7
2018-Jan-06 02:00N 32°09' W 091°00'4 8.6
2018-Jan-06 01:31N 32°13' W 090°59'5 9.2
2018-Jan-06 01:01N 32°17' W 090°56'4 7.7
2018-Jan-06 00:30N 32°21' W 090°55'5 9.2
2018-Jan-06 00:01N 32°21' W 090°60'4 8.2
2018-Jan-05 23:30N 32°25' W 091°01'5 9.3
2018-Jan-05 23:00N 32°27' W 091°06'  

Dump ship's entire track history